Tasman Crusader — A8NQ7 — position and weather

sailwx.info

Track history (hours):
 
Tides and Currents Weather Stations Pressure Air Temp Water Temp Dewpoint Dewpoint Depression Visibility Wind Speed Wind Dir Waves Ship Positions

Tasman Crusader

Last reported at 2014-Dec-18 12:31 UTC. Time now 2014-Dec-18 13:28 UTC.
Position N 37°45' W 122°20'.

Length 186 m; draft 8.4 m.

Type: Cargo ship. MMSI: 636091434.

Date/timePositionNaut miles runAvg speedWind from/ knotsBaromVisibWave heightAir tempDewpointWater temp
2014-Dec-18 12:31N 37°45' W 122°20'0 0.1
2014-Dec-18 11:31N 37°45' W 122°20'0 0.0
2014-Dec-18 10:31N 37°45' W 122°20'0 0.0
2014-Dec-18 09:31N 37°45' W 122°20'0 0.0
2014-Dec-18 08:31N 37°45' W 122°20'0 0.0
2014-Dec-18 07:31N 37°45' W 122°20'0 0.0
2014-Dec-18 06:31N 37°45' W 122°20'0 0.0
2014-Dec-18 05:31N 37°45' W 122°20'0 0.2
2014-Dec-18 04:31N 37°45' W 122°20'0 0.1
2014-Dec-18 03:31N 37°45' W 122°20'0 0.0
2014-Dec-18 02:31N 37°45' W 122°20'0 0.0
2014-Dec-18 01:31N 37°45' W 122°20'0 0.1
2014-Dec-18 00:34N 37°45' W 122°20'0 0.2
2014-Dec-17 23:31N 37°45' W 122°20'0 0.0
2014-Dec-17 22:31N 37°45' W 122°20'0 0.0
2014-Dec-17 21:31N 37°45' W 122°20'0 0.0
2014-Dec-17 20:31N 37°45' W 122°20'0 0.0
2014-Dec-17 19:31N 37°45' W 122°20'0 0.0
2014-Dec-17 18:31N 37°45' W 122°20'0 0.0
2014-Dec-17 17:31N 37°45' W 122°20'0 0.1
2014-Dec-17 16:31N 37°45' W 122°20'0 0.2
2014-Dec-17 15:31N 37°45' W 122°20'0 0.0
2014-Dec-17 14:31N 37°45' W 122°20'0 0.0
2014-Dec-17 13:31N 37°45' W 122°20'0 0.0
2014-Dec-17 12:31N 37°45' W 122°20'0 0.1
2014-Dec-17 11:31N 37°45' W 122°20'0 0.2
2014-Dec-17 10:31N 37°45' W 122°20'0 0.1
2014-Dec-17 09:31N 37°45' W 122°20'0 0.0
2014-Dec-17 08:31N 37°45' W 122°20'0 0.0
2014-Dec-17 07:31N 37°45' W 122°20'0 0.0
2014-Dec-17 06:31N 37°45' W 122°20'0 0.0
2014-Dec-17 05:31N 37°45' W 122°20'0 0.2
2014-Dec-17 04:31N 37°45' W 122°20'0 0.0
2014-Dec-17 03:31N 37°45' W 122°20'0 0.1
2014-Dec-17 02:28N 37°45' W 122°20'0 0.1
2014-Dec-17 01:31N 37°45' W 122°20'0 0.1
2014-Dec-17 00:31N 37°45' W 122°20'0 0.0
2014-Dec-16 23:31N 37°45' W 122°20'0 0.1
2014-Dec-16 22:31N 37°45' W 122°20'0 0.0
2014-Dec-16 21:34N 37°45' W 122°20'0 0.1
2014-Dec-16 20:31N 37°45' W 122°20'0 0.0
2014-Dec-16 19:34N 37°45' W 122°20'0 0.0
2014-Dec-16 18:31N 37°45' W 122°20'0 0.0
2014-Dec-16 17:31N 37°45' W 122°20'0 0.0
2014-Dec-16 16:31N 37°45' W 122°20'0 0.0
2014-Dec-16 15:34N 37°45' W 122°20'0 0.1
2014-Dec-16 14:31N 37°45' W 122°20'0 0.1
2014-Dec-16 13:34N 37°45' W 122°20'0 0.0
2014-Dec-16 12:34N 37°45' W 122°20'0 0.1
2014-Dec-16 11:34N 37°45' W 122°20'0 0.1
2014-Dec-16 10:34N 37°45' W 122°20'0 0.1
2014-Dec-16 09:34N 37°45' W 122°20'0 0.0
2014-Dec-16 08:34N 37°45' W 122°20'0 0.1
2014-Dec-16 07:34N 37°45' W 122°20'0 0.0
2014-Dec-16 06:34N 37°45' W 122°20'0 0.0
2014-Dec-16 05:34N 37°45' W 122°20'0 0.0
2014-Dec-16 04:28N 37°45' W 122°20'0 0.0
2014-Dec-16 03:31N 37°45' W 122°20'0 0.1
2014-Dec-16 02:30N 37°45' W 122°20'0 0.0
2014-Dec-16 01:07N 37°45' W 122°20'0 0.1
2014-Dec-16 00:16N 37°45' W 122°20'4 5.6
2014-Dec-15 23:34N 37°48' W 122°23'1514.7
2014-Dec-15 22:34N 37°44' W 122°40'1312.8
2014-Dec-15 21:33N 37°37' W 122°54'7 7.1
2014-Dec-15 20:33N 37°33' W 123°01'10 9.0
2014-Dec-15 19:30N 37°24' W 123°04'4010.1
2014-Dec-15 15:33N 36°46' W 122°45'1111.3
2014-Dec-15 14:33N 36°36' W 122°40'1110.8
2014-Dec-15 13:33N 36°27' W 122°34'1110.6
2014-Dec-15 12:33N 36°17' W 122°28'1111.0
2014-Dec-15 11:34N 36°07' W 122°22'1110.9
2014-Dec-15 10:34N 35°57' W 122°17'1110.9
2014-Dec-15 09:34N 35°47' W 122°11'1111.1
2014-Dec-15 08:34N 35°37' W 122°05'3611.2
2014-Dec-15 05:23N 35°05' W 121°46'1111.2
2014-Dec-15 04:27N 34°56' W 121°40'1111.1
2014-Dec-15 03:26N 34°46' W 121°35'180 8.8
2014-Dec-14 07:04N 33°42' W 118°11'4 7.5
2014-Dec-14 06:34N 33°45' W 118°13'1 1.1
2014-Dec-14 05:33N 33°46' W 118°14'0 0.0
2014-Dec-14 04:24N 33°46' W 118°14'0 0.0
2014-Dec-14 03:33N 33°46' W 118°14'0 0.0
2014-Dec-14 02:33N 33°46' W 118°14'0 0.0
2014-Dec-14 01:30N 33°46' W 118°14'0 0.1
2014-Dec-14 00:30N 33°46' W 118°14'0 0.0
2014-Dec-13 23:33N 33°46' W 118°14'0 0.1
2014-Dec-13 22:33N 33°46' W 118°14'0 0.1
2014-Dec-13 21:33N 33°46' W 118°14'0 0.0
2014-Dec-13 20:33N 33°46' W 118°14'0 0.0
2014-Dec-13 19:33N 33°46' W 118°14'0 0.0
2014-Dec-13 18:27N 33°46' W 118°14'0 0.0
2014-Dec-13 17:30N 33°46' W 118°14'0 0.0
2014-Dec-13 16:33N 33°46' W 118°14'0 0.0
2014-Dec-13 15:33N 33°46' W 118°14'0 0.0
2014-Dec-13 14:33N 33°46' W 118°14'1 1.3
2014-Dec-13 13:33N 33°45' W 118°13'  
2014-Dec-11 00:31N 34°09' W 119°12'3 2.8
2014-Dec-10 23:33N 34°07' W 119°14'6 5.5
2014-Dec-10 22:33N 34°02' W 119°10'9 8.7
2014-Dec-10 21:33N 33°58' W 119°01'9 9.5
2014-Dec-10 20:33N 33°53' W 118°51'10 9.5
2014-Dec-10 19:32N 33°48' W 118°41'10 9.9
2014-Dec-10 18:33N 33°44' W 118°31'10 9.7
2014-Dec-10 17:33N 33°39' W 118°21'10 9.7
2014-Dec-10 16:33N 33°36' W 118°10'1010.0
2014-Dec-10 15:33N 33°27' W 118°06'1010.0
2014-Dec-10 14:33N 33°17' W 118°02'1010.1
2014-Dec-10 13:33N 33°08' W 117°58'1010.2
2014-Dec-10 12:33N 32°58' W 117°53'1212.4
2014-Dec-10 11:33N 32°46' W 117°48'1312.8
2014-Dec-10 10:33N 32°34' W 117°43'1312.9
2014-Dec-10 09:33N 32°22' W 117°38'1313.0
2014-Dec-10 08:33N 32°10' W 117°33'1312.8
2014-Dec-10 07:33N 31°58' W 117°28'1312.9
2014-Dec-10 06:33N 31°46' W 117°23'1412.9
2014-Dec-10 05:29N 31°33' W 117°17'1212.7
2014-Dec-10 04:33N 31°21' W 117°13'2613.1
2014-Dec-10 02:33N 30°57' W 117°02'1313.0
2014-Dec-10 01:32N 30°44' W 116°58'1212.0
2014-Dec-10 00:33N 30°33' W 116°52'10014.3
2014-Dec-09 17:34N 28°59' W 116°14'  
Track history (hours):
 
Tides and Currents Weather Stations Pressure Air Temp Water Temp Dewpoint Dewpoint Depression Visibility Wind Speed Wind Dir Waves Ship Positions

Tasman Crusader

Last reported at 2014-Dec-18 12:31 UTC. Time now 2014-Dec-18 13:28 UTC.
Position N 37°45' W 122°20'.

Length 186 m; draft 8.4 m.

Type: Cargo ship. MMSI: 636091434.

Date/timePositionNaut miles runAvg speedWind from/ knotsBaromVisibWave heightAir tempDewpointWater temp
2014-Dec-18 12:31N 37°45' W 122°20'0 0.1
2014-Dec-18 11:31N 37°45' W 122°20'0 0.0
2014-Dec-18 10:31N 37°45' W 122°20'0 0.0
2014-Dec-18 09:31N 37°45' W 122°20'0 0.0
2014-Dec-18 08:31N 37°45' W 122°20'0 0.0
2014-Dec-18 07:31N 37°45' W 122°20'0 0.0
2014-Dec-18 06:31N 37°45' W 122°20'0 0.0
2014-Dec-18 05:31N 37°45' W 122°20'0 0.2
2014-Dec-18 04:31N 37°45' W 122°20'0 0.1
2014-Dec-18 03:31N 37°45' W 122°20'0 0.0
2014-Dec-18 02:31N 37°45' W 122°20'0 0.0
2014-Dec-18 01:31N 37°45' W 122°20'0 0.1
2014-Dec-18 00:34N 37°45' W 122°20'0 0.2
2014-Dec-17 23:31N 37°45' W 122°20'0 0.0
2014-Dec-17 22:31N 37°45' W 122°20'0 0.0
2014-Dec-17 21:31N 37°45' W 122°20'0 0.0
2014-Dec-17 20:31N 37°45' W 122°20'0 0.0
2014-Dec-17 19:31N 37°45' W 122°20'0 0.0
2014-Dec-17 18:31N 37°45' W 122°20'0 0.0
2014-Dec-17 17:31N 37°45' W 122°20'0 0.1
2014-Dec-17 16:31N 37°45' W 122°20'0 0.2
2014-Dec-17 15:31N 37°45' W 122°20'0 0.0
2014-Dec-17 14:31N 37°45' W 122°20'0 0.0
2014-Dec-17 13:31N 37°45' W 122°20'0 0.0
2014-Dec-17 12:31N 37°45' W 122°20'0 0.1
2014-Dec-17 11:31N 37°45' W 122°20'0 0.2
2014-Dec-17 10:31N 37°45' W 122°20'0 0.1
2014-Dec-17 09:31N 37°45' W 122°20'0 0.0
2014-Dec-17 08:31N 37°45' W 122°20'0 0.0
2014-Dec-17 07:31N 37°45' W 122°20'0 0.0
2014-Dec-17 06:31N 37°45' W 122°20'0 0.0
2014-Dec-17 05:31N 37°45' W 122°20'0 0.2
2014-Dec-17 04:31N 37°45' W 122°20'0 0.0
2014-Dec-17 03:31N 37°45' W 122°20'0 0.1
2014-Dec-17 02:28N 37°45' W 122°20'0 0.1
2014-Dec-17 01:31N 37°45' W 122°20'0 0.1
2014-Dec-17 00:31N 37°45' W 122°20'0 0.0
2014-Dec-16 23:31N 37°45' W 122°20'0 0.1
2014-Dec-16 22:31N 37°45' W 122°20'0 0.0
2014-Dec-16 21:34N 37°45' W 122°20'0 0.1
2014-Dec-16 20:31N 37°45' W 122°20'0 0.0
2014-Dec-16 19:34N 37°45' W 122°20'0 0.0
2014-Dec-16 18:31N 37°45' W 122°20'0 0.0
2014-Dec-16 17:31N 37°45' W 122°20'0 0.0
2014-Dec-16 16:31N 37°45' W 122°20'0 0.0
2014-Dec-16 15:34N 37°45' W 122°20'0 0.1
2014-Dec-16 14:31N 37°45' W 122°20'0 0.1
2014-Dec-16 13:34N 37°45' W 122°20'0 0.0
2014-Dec-16 12:34N 37°45' W 122°20'0 0.1
2014-Dec-16 11:34N 37°45' W 122°20'0 0.1
2014-Dec-16 10:34N 37°45' W 122°20'0 0.1
2014-Dec-16 09:34N 37°45' W 122°20'0 0.0
2014-Dec-16 08:34N 37°45' W 122°20'0 0.1
2014-Dec-16 07:34N 37°45' W 122°20'0 0.0
2014-Dec-16 06:34N 37°45' W 122°20'0 0.0
2014-Dec-16 05:34N 37°45' W 122°20'0 0.0
2014-Dec-16 04:28N 37°45' W 122°20'0 0.0
2014-Dec-16 03:31N 37°45' W 122°20'0 0.1
2014-Dec-16 02:30N 37°45' W 122°20'0 0.0
2014-Dec-16 01:07N 37°45' W 122°20'0 0.1
2014-Dec-16 00:16N 37°45' W 122°20'4 5.6
2014-Dec-15 23:34N 37°48' W 122°23'1514.7
2014-Dec-15 22:34N 37°44' W 122°40'1312.8
2014-Dec-15 21:33N 37°37' W 122°54'7 7.1
2014-Dec-15 20:33N 37°33' W 123°01'10 9.0
2014-Dec-15 19:30N 37°24' W 123°04'4010.1
2014-Dec-15 15:33N 36°46' W 122°45'1111.3
2014-Dec-15 14:33N 36°36' W 122°40'1110.8
2014-Dec-15 13:33N 36°27' W 122°34'1110.6
2014-Dec-15 12:33N 36°17' W 122°28'1111.0
2014-Dec-15 11:34N 36°07' W 122°22'1110.9
2014-Dec-15 10:34N 35°57' W 122°17'1110.9
2014-Dec-15 09:34N 35°47' W 122°11'1111.1
2014-Dec-15 08:34N 35°37' W 122°05'3611.2
2014-Dec-15 05:23N 35°05' W 121°46'1111.2
2014-Dec-15 04:27N 34°56' W 121°40'1111.1
2014-Dec-15 03:26N 34°46' W 121°35'180 8.8
2014-Dec-14 07:04N 33°42' W 118°11'4 7.5
2014-Dec-14 06:34N 33°45' W 118°13'1 1.1
2014-Dec-14 05:33N 33°46' W 118°14'0 0.0
2014-Dec-14 04:24N 33°46' W 118°14'0 0.0
2014-Dec-14 03:33N 33°46' W 118°14'0 0.0
2014-Dec-14 02:33N 33°46' W 118°14'0 0.0
2014-Dec-14 01:30N 33°46' W 118°14'0 0.1
2014-Dec-14 00:30N 33°46' W 118°14'0 0.0
2014-Dec-13 23:33N 33°46' W 118°14'0 0.1
2014-Dec-13 22:33N 33°46' W 118°14'0 0.1
2014-Dec-13 21:33N 33°46' W 118°14'0 0.0
2014-Dec-13 20:33N 33°46' W 118°14'0 0.0
2014-Dec-13 19:33N 33°46' W 118°14'0 0.0
2014-Dec-13 18:27N 33°46' W 118°14'0 0.0
2014-Dec-13 17:30N 33°46' W 118°14'0 0.0
2014-Dec-13 16:33N 33°46' W 118°14'0 0.0
2014-Dec-13 15:33N 33°46' W 118°14'0 0.0
2014-Dec-13 14:33N 33°46' W 118°14'1 1.3
2014-Dec-13 13:33N 33°45' W 118°13'  
2014-Dec-11 00:31N 34°09' W 119°12'3 2.8
2014-Dec-10 23:33N 34°07' W 119°14'6 5.5
2014-Dec-10 22:33N 34°02' W 119°10'9 8.7
2014-Dec-10 21:33N 33°58' W 119°01'9 9.5
2014-Dec-10 20:33N 33°53' W 118°51'10 9.5
2014-Dec-10 19:32N 33°48' W 118°41'10 9.9
2014-Dec-10 18:33N 33°44' W 118°31'10 9.7
2014-Dec-10 17:33N 33°39' W 118°21'10 9.7
2014-Dec-10 16:33N 33°36' W 118°10'1010.0
2014-Dec-10 15:33N 33°27' W 118°06'1010.0
2014-Dec-10 14:33N 33°17' W 118°02'1010.1
2014-Dec-10 13:33N 33°08' W 117°58'1010.2
2014-Dec-10 12:33N 32°58' W 117°53'1212.4
2014-Dec-10 11:33N 32°46' W 117°48'1312.8
2014-Dec-10 10:33N 32°34' W 117°43'1312.9
2014-Dec-10 09:33N 32°22' W 117°38'1313.0
2014-Dec-10 08:33N 32°10' W 117°33'1312.8
2014-Dec-10 07:33N 31°58' W 117°28'1312.9
2014-Dec-10 06:33N 31°46' W 117°23'1412.9
2014-Dec-10 05:29N 31°33' W 117°17'1212.7
2014-Dec-10 04:33N 31°21' W 117°13'2613.1
2014-Dec-10 02:33N 30°57' W 117°02'1313.0
2014-Dec-10 01:32N 30°44' W 116°58'1212.0
2014-Dec-10 00:33N 30°33' W 116°52'10014.3
2014-Dec-09 17:34N 28°59' W 116°14'  

Dump ship's entire track history